1861 NOT_NAMED (1861101S09083)


IBTrACS version v04r00. Visit IBTrACS website for data access.
Please direct all questions to the IBTrACS Q and A forum

Storm track - Intensity - Wind Radii - Intensity Data - Source Data - All data

Summary Information

Storm ID 1861101S09083
Start Apr 10 18Z
End Apr 17 06Z
ATCF IDs
Track status Best track data.

Storm track plot

Map of storm track

Intensity plots

No Intensity information for this storm


Radial wind information

No radial wind information for this storm


Position and Intensity Table

BASIN ISO_TIME_________ NATURE LAT LON
degrees north degrees east
SI 1861-04-10 18:00:00 NR -9.30 83.10
SI 21:00:00 NR -9.33 82.66
SI 1861-04-11 00:00:00 NR -9.35 82.24
SI 03:00:00 NR -9.38 81.85
SI 06:00:00 NR -9.40 81.50
SI 09:00:00 NR -9.42 81.21
SI 12:00:00 NR -9.44 80.96
SI 15:00:00 NR -9.47 80.73
SI 18:00:00 NR -9.50 80.50
SI 21:00:00 NR -9.54 80.23
SI 1861-04-12 00:00:00 NR -9.59 79.96
SI 03:00:00 NR -9.65 79.68
SI 06:00:00 NR -9.70 79.40
SI 09:00:00 NR -9.75 79.13
SI 12:00:00 NR -9.79 78.86
SI 15:00:00 NR -9.84 78.58
SI 18:00:00 NR -9.90 78.30
SI 21:00:00 NR -9.97 78.02
SI 1861-04-13 00:00:00 NR -10.04 77.74
SI 03:00:00 NR -10.12 77.43
SI 06:00:00 NR -10.20 77.10
SI 09:00:00 NR -10.26 76.72
SI 12:00:00 NR -10.33 76.32
SI 15:00:00 NR -10.40 75.91
SI 18:00:00 NR -10.50 75.50
SI 21:00:00 NR -10.62 75.14
SI 1861-04-14 00:00:00 NR -10.76 74.78
SI 03:00:00 NR -10.92 74.41
SI 06:00:00 NR -11.10 74.00
SI 09:00:00 NR -11.28 73.53
SI 12:00:00 NR -11.47 73.02
SI 15:00:00 NR -11.68 72.51
SI 18:00:00 NR -11.90 72.00
SI 21:00:00 NR -12.14 71.50
SI 1861-04-15 00:00:00 NR -12.40 71.03
SI 03:00:00 NR -12.66 70.58
SI 06:00:00 NR -12.90 70.20
SI 09:00:00 NR -13.12 69.88
SI 12:00:00 NR -13.33 69.62
SI 15:00:00 NR -13.52 69.40
SI 18:00:00 NR -13.70 69.20
SI 21:00:00 NR -13.85 68.99
SI 1861-04-16 00:00:00 NR -13.98 68.79
SI 03:00:00 NR -14.13 68.60
SI 06:00:00 NR -14.30 68.40
SI 09:00:00 NR -14.53 68.17
SI 12:00:00 NR -14.78 67.94
SI 15:00:00 NR -15.04 67.71
SI 18:00:00 NR -15.30 67.50
SI 21:00:00 NR -15.54 67.31
SI 1861-04-17 00:00:00 NR -15.77 67.13
SI 03:00:00 NR -15.99 66.96
SI 06:00:00 NR -16.20 66.80

Source Information

Agency Information
USA
TOKYO
CMA
HKO
NEWDELHI
REUNION
BOM
NADI
WELLINGTON
DS824
TD9636 cons_worldwide_trop_cyclone_18710101-19891231-005:Line=515
TD9635
NEUMANN
MLC

All available IBTrACS Data

SEASON BASIN SUBBASIN ISO_TIME_________ NATURE LAT LON DIST2LAND LANDFALL IFLAG USA SSHS TD9636 LAT TD9636 LON TD9636 STAGE STORM SPEED STORM DIR
Year degrees north degrees east km km 1 degrees north degrees east kts degrees
1861 SI MM 1861-04-10 18:00:00 NR -9.30 83.10 1725 1719 __________O___ -1 -9.30 83.10 7 9 266
1861 SI MM 21:00:00 NR -9.33 82.66 1719 1713 __________P___ -1 -9.33 82.66 7 9 266
1861 SI MM 1861-04-11 00:00:00 NR -9.35 82.24 1723 1720 __________P___ -1 -9.35 82.24 7 8 266
1861 SI MM 03:00:00 NR -9.38 81.85 1719 1717 __________P___ -1 -9.38 81.85 7 7 266
1861 SI MM 06:00:00 NR -9.40 81.50 1717 1715 __________O___ -1 -9.40 81.50 7 6 266
1861 SI MM 09:00:00 NR -9.42 81.21 1715 1714 __________P___ -1 -9.42 81.21 7 5 265
1861 SI MM 12:00:00 NR -9.44 80.96 1714 1714 __________P___ -1 -9.44 80.96 7 5 264
1861 SI MM 15:00:00 NR -9.47 80.73 1725 1725 __________P___ -1 -9.47 80.73 7 5 263
1861 SI MM 18:00:00 NR -9.50 80.50 1725 1725 __________O___ -1 -9.50 80.50 7 5 261
1861 SI MM 21:00:00 NR -9.54 80.23 1726 1726 __________P___ -1 -9.54 80.23 7 5 260
1861 SI MM 1861-04-12 00:00:00 NR -9.59 79.96 1738 1738 __________P___ -1 -9.59 79.96 7 6 259
1861 SI MM 03:00:00 NR -9.65 79.68 1739 1739 __________P___ -1 -9.65 79.68 7 6 259
1861 SI MM 06:00:00 NR -9.70 79.40 1753 1753 __________O___ -1 -9.70 79.40 7 6 260
1861 SI MM 09:00:00 NR -9.75 79.13 1755 1755 __________P___ -1 -9.75 79.13 7 5 260
1861 SI MM 12:00:00 NR -9.79 78.86 1769 1769 __________P___ -1 -9.79 78.86 7 5 260
1861 SI MM 15:00:00 NR -9.84 78.58 1773 1773 __________P___ -1 -9.84 78.58 7 6 259
1861 SI MM 18:00:00 NR -9.90 78.30 1788 1788 __________O___ -1 -9.90 78.30 7 6 257
1861 SI MM 21:00:00 NR -9.97 78.02 1804 1804 __________P___ -1 -9.97 78.02 7 6 256
1861 SI MM 1861-04-13 00:00:00 NR -10.04 77.74 1810 1810 __________P___ -1 -10.04 77.74 7 6 255
1861 SI MM 03:00:00 NR -10.12 77.43 1827 1827 __________P___ -1 -10.12 77.43 7 6 256
1861 SI MM 06:00:00 NR -10.20 77.10 1845 1845 __________O___ -1 -10.20 77.10 7 7 258
1861 SI MM 09:00:00 NR -10.26 76.72 1865 1865 __________P___ -1 -10.26 76.72 7 8 261
1861 SI MM 12:00:00 NR -10.33 76.32 1876 1876 __________P___ -1 -10.33 76.32 7 8 260
1861 SI MM 15:00:00 NR -10.40 75.91 1899 1899 __________P___ -1 -10.40 75.91 7 8 258
1861 SI MM 18:00:00 NR -10.50 75.50 1922 1922 __________O___ -1 -10.50 75.50 7 8 254
1861 SI MM 21:00:00 NR -10.62 75.14 1946 1946 __________P___ -1 -10.62 75.14 7 8 250
1861 SI MM 1861-04-14 00:00:00 NR -10.76 74.78 1978 1978 __________P___ -1 -10.76 74.78 7 8 247
1861 SI MM 03:00:00 NR -10.92 74.41 2003 2003 __________P___ -1 -10.92 74.41 7 8 246
1861 SI MM 06:00:00 NR -11.10 74.00 2013 1964 __________O___ -1 -11.10 74.00 7 9 248
1861 SI MM 09:00:00 NR -11.28 73.53 1955 1906 __________P___ -1 -11.28 73.53 7 10 249
1861 SI MM 12:00:00 NR -11.47 73.02 1897 1839 __________P___ -1 -11.47 73.02 7 11 248
1861 SI MM 15:00:00 NR -11.68 72.51 1839 1781 __________P___ -1 -11.68 72.51 7 11 247
1861 SI MM 18:00:00 NR -11.90 72.00 1781 1723 __________O___ -1 -11.90 72.00 7 11 245
1861 SI MM 21:00:00 NR -12.14 71.50 1723 1669 __________P___ -1 -12.14 71.50 7 11 242
1861 SI MM 1861-04-15 00:00:00 NR -12.40 71.03 1659 1611 __________P___ -1 -12.40 71.03 7 10 240
1861 SI MM 03:00:00 NR -12.66 70.58 1605 1556 __________P___ -1 -12.66 70.58 7 10 238
1861 SI MM 06:00:00 NR -12.90 70.20 1556 1517 __________O___ -1 -12.90 70.20 7 8 236
1861 SI MM 09:00:00 NR -13.12 69.88 1517 1477 __________P___ -1 -13.12 69.88 7 7 233
1861 SI MM 12:00:00 NR -13.33 69.62 1477 1447 __________P___ -1 -13.33 69.62 7 6 229
1861 SI MM 15:00:00 NR -13.52 69.40 1447 1417 __________P___ -1 -13.52 69.40 7 6 228
1861 SI MM 18:00:00 NR -13.70 69.20 1417 1392 __________O___ -1 -13.70 69.20 7 5 231
1861 SI MM 21:00:00 NR -13.85 68.99 1392 1362 __________P___ -1 -13.85 68.99 7 5 234
1861 SI MM 1861-04-16 00:00:00 NR -13.98 68.79 1362 1338 __________P___ -1 -13.98 68.79 7 5 234
1861 SI MM 03:00:00 NR -14.13 68.60 1338 1308 __________P___ -1 -14.13 68.60 7 5 230
1861 SI MM 06:00:00 NR -14.30 68.40 1308 1278 __________O___ -1 -14.30 68.40 7 6 226
1861 SI MM 09:00:00 NR -14.53 68.17 1278 1242 __________P___ -1 -14.53 68.17 7 7 223
1861 SI MM 12:00:00 NR -14.78 67.94 1233 1203 __________P___ -1 -14.78 67.94 7 7 221
1861 SI MM 15:00:00 NR -15.04 67.71 1203 1168 __________P___ -1 -15.04 67.71 7 7 219
1861 SI MM 18:00:00 NR -15.30 67.50 1168 1138 __________O___ -1 -15.30 67.50 7 6 218
1861 SI MM 21:00:00 NR -15.54 67.31 1138 1104 __________P___ -1 -15.54 67.31 7 6 217
1861 SI MM 1861-04-17 00:00:00 NR -15.77 67.13 1104 1084 __________P___ -1 -15.77 67.13 7 6 217
1861 SI MM 03:00:00 NR -15.99 66.96 1084 1055 __________P___ -1 -15.99 66.96 7 5 216
1861 SI MM 06:00:00 NR -16.20 66.80 1055 __________O___ -1 -16.20 66.80 7 5 216